createdAt,value
2018-10-03T00:04:16.462Z,44.53
2018-10-03T00:09:20.593Z,48.87
2018-10-03T00:14:24.722Z,44.90
2018-10-03T00:19:28.824Z,51.87
2018-10-03T00:24:32.679Z,43.33
2018-10-03T00:29:36.909Z,50.27
2018-10-03T00:34:41.024Z,42.43
2018-10-03T00:39:45.179Z,48.03
2018-10-03T00:44:49.293Z,47.83
2018-10-03T00:49:53.382Z,42.97
2018-10-03T00:54:57.639Z,48.80
2018-10-03T01:00:01.977Z,48.20
2018-10-03T01:05:06.644Z,46.37
2018-10-03T01:10:10.557Z,39.60
2018-10-03T01:15:14.720Z,36.55
2018-10-03T01:20:18.558Z,40.57
2018-10-03T01:25:23.071Z,37.47
2018-10-03T01:30:27.507Z,38.43
2018-10-03T01:35:31.647Z,32.30
2018-10-03T01:40:36.115Z,33.90
2018-10-03T01:45:39.988Z,32.53
2018-10-03T01:50:44.331Z,36.30
2018-10-03T01:55:48.686Z,30.73
2018-10-03T02:00:52.589Z,39.77
2018-10-03T02:05:56.433Z,34.87
2018-10-03T02:11:00.779Z,33.27
2018-10-03T02:16:04.639Z,34.63
2018-10-03T02:21:08.730Z,40.58
2018-10-03T02:26:12.816Z,43.17
2018-10-03T02:31:16.654Z,44.58
2018-10-03T02:36:20.857Z,43.85
2018-10-03T02:41:24.955Z,41.23
2018-10-03T02:46:29.055Z,42.83
2018-10-03T02:51:33.587Z,38.83
2018-10-03T02:56:37.835Z,34.87
2018-10-03T03:01:41.751Z,36.40
2018-10-03T03:06:45.554Z,34.17
2018-10-03T03:11:49.447Z,30.53
2018-10-03T03:16:53.268Z,33.30
2018-10-03T03:21:57.105Z,31.43
2018-10-03T03:27:01.231Z,30.17
2018-10-03T03:32:05.411Z,29.77
2018-10-03T03:37:09.578Z,28.25
2018-10-03T03:42:13.699Z,26.30
2018-10-03T03:47:18.092Z,28.43
2018-10-03T03:52:22.414Z,28.17
2018-10-03T03:57:26.273Z,29.97
2018-10-03T04:02:30.378Z,27.60
2018-10-03T04:07:34.501Z,28.80
2018-10-03T04:12:38.718Z,28.20
2018-10-03T04:17:42.593Z,29.10
2018-10-03T04:22:46.854Z,28.77
2018-10-03T04:27:50.823Z,26.43
2018-10-03T04:32:54.737Z,26.23
2018-10-03T04:37:58.860Z,29.60
2018-10-03T04:43:02.724Z,31.53
2018-10-03T04:48:06.643Z,30.47
2018-10-03T04:53:10.510Z,27.10
2018-10-03T04:58:14.338Z,34.43
2018-10-03T05:03:18.186Z,33.43
2018-10-03T05:08:22.390Z,24.97
2018-10-03T05:13:26.279Z,21.90
2018-10-03T05:18:30.386Z,28.87
2018-10-03T05:23:34.503Z,20.43
2018-10-03T05:28:38.618Z,23.97
2018-10-03T05:33:42.794Z,22.17
2018-10-03T05:38:46.636Z,22.48
2018-10-03T05:43:50.577Z,22.43
2018-10-03T05:48:54.761Z,19.93
2018-10-03T05:53:58.823Z,21.87
2018-10-03T05:59:02.675Z,17.15
2018-10-03T06:04:06.672Z,19.37
2018-10-03T06:09:11.873Z,14.45
2018-10-03T06:14:16.130Z,20.13
2018-10-03T06:19:20.403Z,21.33
2018-10-03T06:24:24.269Z,15.13
2018-10-03T06:29:28.388Z,15.30
2018-10-03T06:34:32.585Z,15.40
2018-10-03T06:39:36.650Z,20.87
2018-10-03T06:44:40.747Z,18.27
2018-10-03T06:49:44.553Z,15.50
2018-10-03T06:54:48.686Z,18.77
2018-10-03T06:59:52.532Z,19.30
2018-10-03T07:04:56.657Z,12.37
2018-10-03T07:10:00.766Z,13.10
2018-10-03T07:15:04.612Z,15.77
2018-10-03T07:20:08.493Z,25.23
2018-10-03T07:25:12.259Z,16.03
2018-10-03T07:30:16.081Z,13.73
2018-10-03T07:35:19.917Z,15.17
2018-10-03T07:40:23.997Z,16.00
2018-10-03T07:45:28.073Z,15.78
2018-10-03T07:50:32.266Z,17.03
2018-10-03T07:55:36.419Z,19.43
2018-10-03T08:00:40.474Z,22.03
2018-10-03T08:05:44.336Z,17.87
2018-10-03T08:10:48.139Z,24.77
2018-10-03T08:15:52.239Z,20.83
2018-10-03T08:20:56.340Z,18.50
2018-10-03T08:26:00.153Z,19.90
2018-10-03T08:31:04.263Z,35.33
2018-10-03T08:36:08.346Z,17.73
2018-10-03T08:41:12.174Z,24.47
2018-10-03T08:46:16.278Z,22.27
2018-10-03T08:51:20.453Z,16.83
2018-10-03T08:56:24.265Z,18.30
2018-10-03T09:01:28.321Z,16.63
2018-10-03T09:06:32.127Z,17.27
2018-10-03T09:11:36.490Z,16.73
2018-10-03T09:16:40.288Z,14.43
2018-10-03T09:21:44.275Z,20.90
2018-10-03T09:26:48.001Z,15.53
2018-10-03T09:31:52.204Z,17.98
2018-10-03T09:36:56.023Z,15.97
2018-10-03T09:42:00.090Z,16.77
2018-10-03T09:47:04.291Z,15.80
2018-10-03T09:52:08.101Z,16.63
2018-10-03T09:57:12.200Z,16.13
2018-10-03T10:02:16.280Z,15.40
2018-10-03T10:07:20.473Z,18.50
2018-10-03T10:12:24.291Z,15.80
2018-10-03T10:17:28.133Z,17.83
2018-10-03T10:22:32.194Z,15.93
2018-10-03T10:27:36.371Z,17.17
2018-10-03T10:32:40.251Z,17.73
2018-10-03T10:37:44.033Z,18.23
2018-10-03T10:42:47.897Z,10.27
2018-10-03T10:47:51.796Z,16.90
2018-10-03T10:52:55.601Z,13.10
2018-10-03T10:57:59.436Z,12.40
2018-10-03T11:03:03.546Z,16.33
2018-10-03T11:08:07.750Z,11.80
2018-10-03T11:13:11.562Z,17.07
2018-10-03T11:18:16.396Z,17.57
2018-10-03T11:23:20.546Z,14.30
2018-10-03T11:28:24.318Z,15.30
2018-10-03T11:33:28.149Z,10.70
2018-10-03T11:38:32.198Z,15.97
2018-10-03T11:43:36.008Z,16.67
2018-10-03T11:48:39.836Z,11.48
2018-10-03T11:53:43.910Z,15.43
2018-10-03T11:58:47.709Z,17.47
2018-10-03T12:03:51.907Z,12.17
2018-10-03T12:08:56.061Z,12.50
2018-10-03T12:14:00.159Z,11.03
2018-10-03T12:19:03.985Z,15.17
2018-10-03T12:24:08.138Z,12.23
2018-10-03T12:29:12.227Z,15.60
2018-10-03T12:34:16.311Z,12.93
2018-10-03T12:39:20.223Z,13.83
2018-10-03T12:44:24.056Z,11.77
2018-10-03T12:49:30.846Z,14.20
2018-10-03T12:54:34.972Z,12.23
2018-10-03T12:59:38.796Z,18.60
2018-10-03T13:04:42.635Z,13.43
2018-10-03T13:09:46.695Z,13.93
2018-10-03T13:14:50.806Z,17.03
2018-10-03T13:19:54.918Z,14.70
2018-10-03T13:24:58.720Z,13.37
2018-10-03T13:30:02.783Z,13.27
2018-10-03T13:35:06.605Z,11.63
2018-10-03T13:40:10.659Z,13.70
2018-10-03T13:45:14.696Z,12.47
2018-10-03T13:50:18.483Z,12.70
2018-10-03T13:55:22.724Z,12.73
2018-10-03T14:00:26.784Z,18.30
2018-10-03T14:05:30.873Z,12.20
2018-10-03T14:10:34.953Z,11.57
2018-10-03T14:15:38.796Z,15.37
2018-10-03T14:20:42.883Z,13.87
2018-10-03T14:25:46.845Z,12.03
2018-10-03T14:30:50.941Z,15.63
2018-10-03T14:35:55.005Z,13.30
2018-10-03T14:40:58.841Z,13.27
2018-10-03T14:46:02.905Z,11.93
2018-10-03T14:51:06.894Z,15.70
2018-10-03T14:56:10.701Z,14.30
2018-10-03T15:01:14.794Z,12.50
2018-10-03T15:06:18.604Z,15.17
2018-10-03T15:11:22.440Z,16.77
2018-10-03T15:16:26.502Z,12.80
2018-10-03T15:21:30.536Z,14.33
2018-10-03T15:26:34.586Z,15.07
2018-10-03T15:31:38.700Z,15.43
2018-10-03T15:36:42.758Z,13.77
2018-10-03T15:41:53.196Z,18.40
2018-10-03T15:46:57.246Z,16.70
2018-10-03T15:52:01.042Z,12.82
2018-10-03T15:57:05.073Z,16.60
2018-10-03T16:02:09.149Z,11.85
2018-10-03T16:07:13.197Z,12.88
2018-10-03T16:12:16.998Z,10.80
2018-10-03T16:17:21.433Z,12.33
2018-10-03T16:22:25.249Z,16.70
2018-10-03T16:27:29.545Z,10.77
2018-10-03T16:32:33.629Z,18.23
2018-10-03T16:37:37.692Z,19.17
2018-10-03T16:42:41.870Z,13.30
2018-10-03T16:47:45.948Z,13.50
2018-10-03T16:52:50.116Z,14.63
2018-10-03T16:57:54.181Z,12.70
2018-10-03T17:02:59.050Z,14.57
2018-10-03T17:08:03.119Z,15.67
2018-10-03T17:13:07.252Z,14.73
2018-10-03T17:18:11.336Z,13.70
2018-10-03T17:23:15.161Z,10.82
2018-10-03T17:28:18.977Z,14.63
2018-10-03T17:33:22.796Z,13.67
2018-10-03T17:38:26.910Z,14.23
2018-10-03T17:43:30.990Z,16.43
2018-10-03T17:48:34.834Z,15.80
2018-10-03T17:53:38.671Z,18.73
2018-10-03T17:58:42.534Z,15.43
2018-10-03T18:03:46.605Z,12.37
2018-10-03T18:08:50.557Z,14.73
2018-10-03T18:13:54.403Z,13.63
2018-10-03T18:18:58.318Z,11.73
2018-10-03T18:24:02.126Z,13.05
2018-10-03T18:29:06.417Z,16.53
2018-10-03T18:34:10.494Z,19.12
2018-10-03T18:39:14.657Z,13.95
2018-10-03T18:44:18.449Z,14.07
2018-10-03T18:49:22.586Z,16.27
2018-10-03T18:54:26.652Z,11.10
2018-10-03T18:59:31.292Z,12.33
2018-10-03T19:04:36.806Z,19.80
2018-10-03T19:09:40.634Z,16.53
2018-10-03T19:14:44.697Z,13.83
2018-10-03T19:19:48.506Z,14.37
2018-10-03T19:24:52.345Z,16.50
2018-10-03T19:29:56.388Z,13.53
2018-10-03T19:35:00.436Z,14.20
2018-10-03T19:40:04.250Z,15.03
2018-10-03T19:45:08.069Z,19.67
2018-10-03T19:50:11.867Z,15.60
2018-10-03T19:55:15.938Z,17.97
2018-10-03T20:00:19.790Z,13.23
2018-10-03T20:05:23.569Z,17.40
2018-10-03T20:10:27.624Z,17.67
2018-10-03T20:15:31.711Z,13.72
2018-10-03T20:20:36.540Z,12.53
2018-10-03T20:25:40.369Z,16.43
2018-10-03T20:30:44.173Z,17.67
2018-10-03T20:35:47.983Z,14.43
2018-10-03T20:40:52.125Z,14.47
2018-10-03T20:45:55.932Z,18.63
2018-10-03T20:50:59.959Z,13.23
2018-10-03T20:56:03.757Z,14.53
2018-10-03T21:01:07.638Z,13.17
2018-10-03T21:06:11.453Z,17.13
2018-10-03T21:11:15.752Z,16.40
2018-10-03T21:16:19.933Z,15.93
2018-10-03T21:21:24.020Z,12.03
2018-10-03T21:26:28.107Z,13.23
2018-10-03T21:31:31.952Z,12.27
2018-10-03T21:36:36.086Z,12.67
2018-10-03T21:41:39.909Z,16.40
2018-10-03T21:46:43.732Z,15.57
2018-10-03T21:51:47.801Z,12.57
2018-10-03T21:56:51.966Z,15.23
2018-10-03T22:01:56.661Z,18.17
2018-10-03T22:07:00.727Z,12.17
2018-10-03T22:12:04.816Z,17.30
2018-10-03T22:17:13.878Z,18.17
2018-10-03T22:22:17.697Z,14.63
2018-10-03T22:27:21.572Z,16.80
2018-10-03T22:32:25.630Z,16.57
2018-10-03T22:37:29.419Z,15.13
2018-10-03T22:42:33.479Z,14.00
2018-10-03T22:47:37.561Z,17.83
2018-10-03T22:52:41.356Z,16.85
2018-10-03T22:57:45.265Z,14.40
2018-10-03T23:02:49.322Z,14.07
2018-10-03T23:07:53.117Z,13.90
2018-10-03T23:12:56.919Z,14.40
2018-10-03T23:18:00.962Z,15.13
2018-10-03T23:23:05.001Z,15.47
2018-10-03T23:28:08.801Z,22.40
2018-10-03T23:33:12.617Z,17.80
2018-10-03T23:38:16.424Z,20.00
2018-10-03T23:43:20.317Z,13.48
2018-10-03T23:48:24.365Z,15.50
2018-10-03T23:53:28.421Z,13.20
2018-10-03T23:58:32.503Z,15.70
